sensor_id;sensor_type;location;lat;lon;timestamp;temperature;humidity
19174;DHT22;9719;49.322;8.536;2024-02-21T00:01:33;8.30;99.90
19174;DHT22;9719;49.322;8.536;2024-02-21T00:06:34;8.40;99.90
19174;DHT22;9719;49.322;8.536;2024-02-21T00:11:37;8.30;99.90
19174;DHT22;9719;49.322;8.536;2024-02-21T00:16:39;8.30;99.90
19174;DHT22;9719;49.322;8.536;2024-02-21T00:21:41;8.30;99.90
19174;DHT22;9719;49.322;8.536;2024-02-21T00:26:44;8.20;99.90
19174;DHT22;9719;49.322;8.536;2024-02-21T00:31:45;8.30;99.90
19174;DHT22;9719;49.322;8.536;2024-02-21T00:36:47;8.30;99.90
19174;DHT22;9719;49.322;8.536;2024-02-21T00:41:50;8.30;99.90
19174;DHT22;9719;49.322;8.536;2024-02-21T00:46:52;8.30;99.90
19174;DHT22;9719;49.322;8.536;2024-02-21T00:51:54;8.20;99.90
19174;DHT22;9719;49.322;8.536;2024-02-21T00:56:57;8.40;99.90
19174;DHT22;9719;49.322;8.536;2024-02-21T01:01:58;8.40;99.90
19174;DHT22;9719;49.322;8.536;2024-02-21T01:07:00;8.30;99.90
19174;DHT22;9719;49.322;8.536;2024-02-21T01:12:04;8.30;99.90
19174;DHT22;9719;49.322;8.536;2024-02-21T01:17:05;8.20;99.90
19174;DHT22;9719;49.322;8.536;2024-02-21T01:22:07;8.20;99.90
19174;DHT22;9719;49.322;8.536;2024-02-21T01:27:10;8.30;99.90
19174;DHT22;9719;49.322;8.536;2024-02-21T01:32:12;8.30;99.90
19174;DHT22;9719;49.322;8.536;2024-02-21T01:37:13;8.10;99.90
19174;DHT22;9719;49.322;8.536;2024-02-21T01:42:16;8.20;99.90
19174;DHT22;9719;49.322;8.536;2024-02-21T01:47:18;8.30;99.90
19174;DHT22;9719;49.322;8.536;2024-02-21T01:52:20;8.00;99.90
19174;DHT22;9719;49.322;8.536;2024-02-21T01:57:24;8.10;99.90
19174;DHT22;9719;49.322;8.536;2024-02-21T02:02:26;8.10;99.90
19174;DHT22;9719;49.322;8.536;2024-02-21T02:07:28;8.00;99.90
19174;DHT22;9719;49.322;8.536;2024-02-21T02:12:31;7.90;99.90
19174;DHT22;9719;49.322;8.536;2024-02-21T02:17:33;7.90;99.90
19174;DHT22;9719;49.322;8.536;2024-02-21T02:22:36;7.90;99.90
19174;DHT22;9719;49.322;8.536;2024-02-21T02:27:44;7.90;99.90
19174;DHT22;9719;49.322;8.536;2024-02-21T02:32:46;7.90;99.90
19174;DHT22;9719;49.322;8.536;2024-02-21T02:37:48;7.80;99.90
19174;DHT22;9719;49.322;8.536;2024-02-21T02:42:52;7.90;99.90
19174;DHT22;9719;49.322;8.536;2024-02-21T02:47:55;8.00;99.90
19174;DHT22;9719;49.322;8.536;2024-02-21T02:52:57;7.80;99.90
19174;DHT22;9719;49.322;8.536;2024-02-21T02:58:00;7.90;99.90
19174;DHT22;9719;49.322;8.536;2024-02-21T03:03:03;7.70;99.90
19174;DHT22;9719;49.322;8.536;2024-02-21T03:08:05;7.80;99.90
19174;DHT22;9719;49.322;8.536;2024-02-21T03:13:10;7.80;99.90
19174;DHT22;9719;49.322;8.536;2024-02-21T03:18:11;7.50;99.90
19174;DHT22;9719;49.322;8.536;2024-02-21T03:23:13;7.70;99.90
19174;DHT22;9719;49.322;8.536;2024-02-21T03:28:17;7.70;99.90
19174;DHT22;9719;49.322;8.536;2024-02-21T03:33:18;7.70;99.90
19174;DHT22;9719;49.322;8.536;2024-02-21T03:38:21;7.70;99.90
19174;DHT22;9719;49.322;8.536;2024-02-21T03:43:24;7.60;99.90
19174;DHT22;9719;49.322;8.536;2024-02-21T03:48:25;7.60;99.90
19174;DHT22;9719;49.322;8.536;2024-02-21T03:53:27;7.60;99.90
19174;DHT22;9719;49.322;8.536;2024-02-21T03:58:30;7.60;99.90
19174;DHT22;9719;49.322;8.536;2024-02-21T04:03:32;7.70;99.90
19174;DHT22;9719;49.322;8.536;2024-02-21T04:08:33;7.80;99.90
19174;DHT22;9719;49.322;8.536;2024-02-21T04:13:36;7.50;99.90
19174;DHT22;9719;49.322;8.536;2024-02-21T04:18:39;7.50;99.90
19174;DHT22;9719;49.322;8.536;2024-02-21T04:23:41;7.50;99.90
19174;DHT22;9719;49.322;8.536;2024-02-21T04:28:46;7.60;99.90
19174;DHT22;9719;49.322;8.536;2024-02-21T04:33:48;7.40;99.90
19174;DHT22;9719;49.322;8.536;2024-02-21T04:38:50;7.30;99.90
19174;DHT22;9719;49.322;8.536;2024-02-21T04:43:53;7.10;99.90
19174;DHT22;9719;49.322;8.536;2024-02-21T04:48:54;7.10;99.90
19174;DHT22;9719;49.322;8.536;2024-02-21T04:53:56;7.00;99.90
19174;DHT22;9719;49.322;8.536;2024-02-21T04:59:00;7.00;99.90
19174;DHT22;9719;49.322;8.536;2024-02-21T05:04:01;7.00;99.90
19174;DHT22;9719;49.322;8.536;2024-02-21T05:09:03;6.80;99.90
19174;DHT22;9719;49.322;8.536;2024-02-21T05:14:06;6.90;99.90
19174;DHT22;9719;49.322;8.536;2024-02-21T05:19:08;6.80;99.90
19174;DHT22;9719;49.322;8.536;2024-02-21T05:24:09;6.70;99.90
19174;DHT22;9719;49.322;8.536;2024-02-21T05:29:12;6.70;99.90
19174;DHT22;9719;49.322;8.536;2024-02-21T05:34:14;6.70;99.90
19174;DHT22;9719;49.322;8.536;2024-02-21T05:39:18;6.60;99.90
19174;DHT22;9719;49.322;8.536;2024-02-21T05:44:20;6.50;99.90
19174;DHT22;9719;49.322;8.536;2024-02-21T05:49:23;6.40;99.90
19174;DHT22;9719;49.322;8.536;2024-02-21T05:54:24;6.60;99.90
19174;DHT22;9719;49.322;8.536;2024-02-21T05:59:27;6.50;99.90
19174;DHT22;9719;49.322;8.536;2024-02-21T06:04:31;6.40;99.90
19174;DHT22;9719;49.322;8.536;2024-02-21T06:09:32;6.40;99.90
19174;DHT22;9719;49.322;8.536;2024-02-21T06:14:35;6.20;99.90
19174;DHT22;9719;49.322;8.536;2024-02-21T06:19:39;6.30;99.90
19174;DHT22;9719;49.322;8.536;2024-02-21T06:24:42;6.20;99.90
19174;DHT22;9719;49.322;8.536;2024-02-21T06:29:45;6.30;99.90
19174;DHT22;9719;49.322;8.536;2024-02-21T06:34:47;6.30;99.90
19174;DHT22;9719;49.322;8.536;2024-02-21T06:39:49;6.20;99.90
19174;DHT22;9719;49.322;8.536;2024-02-21T06:44:52;6.30;99.90
19174;DHT22;9719;49.322;8.536;2024-02-21T06:49:53;6.30;99.90
19174;DHT22;9719;49.322;8.536;2024-02-21T06:54:55;6.30;99.90
19174;DHT22;9719;49.322;8.536;2024-02-21T06:59:58;6.30;99.90
19174;DHT22;9719;49.322;8.536;2024-02-21T07:05:00;6.60;99.90
19174;DHT22;9719;49.322;8.536;2024-02-21T07:10:01;6.60;99.90
19174;DHT22;9719;49.322;8.536;2024-02-21T07:15:06;6.70;99.90
19174;DHT22;9719;49.322;8.536;2024-02-21T07:20:08;6.80;99.90
19174;DHT22;9719;49.322;8.536;2024-02-21T07:25:10;7.00;99.90
19174;DHT22;9719;49.322;8.536;2024-02-21T07:30:14;7.10;99.90
19174;DHT22;9719;49.322;8.536;2024-02-21T07:35:15;7.10;99.90
19174;DHT22;9719;49.322;8.536;2024-02-21T07:40:17;7.40;99.90
19174;DHT22;9719;49.322;8.536;2024-02-21T07:45:20;7.50;99.90
19174;DHT22;9719;49.322;8.536;2024-02-21T07:50:24;7.60;99.90
19174;DHT22;9719;49.322;8.536;2024-02-21T07:55:25;7.80;99.90
19174;DHT22;9719;49.322;8.536;2024-02-21T08:00:28;7.90;99.90
19174;DHT22;9719;49.322;8.536;2024-02-21T08:05:30;7.90;99.90
19174;DHT22;9719;49.322;8.536;2024-02-21T08:10:32;8.20;99.90
19174;DHT22;9719;49.322;8.536;2024-02-21T08:15:35;8.30;99.90
19174;DHT22;9719;49.322;8.536;2024-02-21T08:20:39;8.30;99.90
19174;DHT22;9719;49.322;8.536;2024-02-21T08:25:41;8.60;99.90
19174;DHT22;9719;49.322;8.536;2024-02-21T08:30:44;8.60;99.90
19174;DHT22;9719;49.322;8.536;2024-02-21T08:35:48;8.80;99.90
19174;DHT22;9719;49.322;8.536;2024-02-21T08:40:50;8.80;99.90
19174;DHT22;9719;49.322;8.536;2024-02-21T08:45:53;8.90;99.90
19174;DHT22;9719;49.322;8.536;2024-02-21T08:50:54;8.90;99.90
19174;DHT22;9719;49.322;8.536;2024-02-21T08:55:56;9.00;99.90
19174;DHT22;9719;49.322;8.536;2024-02-21T09:00:59;8.90;99.90
19174;DHT22;9719;49.322;8.536;2024-02-21T09:06:00;9.10;99.90
19174;DHT22;9719;49.322;8.536;2024-02-21T09:11:03;9.30;99.90
19174;DHT22;9719;49.322;8.536;2024-02-21T09:16:06;9.30;99.90
19174;DHT22;9719;49.322;8.536;2024-02-21T09:21:09;9.60;99.90
19174;DHT22;9719;49.322;8.536;2024-02-21T09:26:11;9.90;99.90
19174;DHT22;9719;49.322;8.536;2024-02-21T09:31:17;10.00;99.90
19174;DHT22;9719;49.322;8.536;2024-02-21T09:36:20;10.20;99.90
19174;DHT22;9719;49.322;8.536;2024-02-21T09:41:25;10.40;99.90
19174;DHT22;9719;49.322;8.536;2024-02-21T09:46:44;10.50;99.90
19174;DHT22;9719;49.322;8.536;2024-02-21T09:51:47;10.70;99.90
19174;DHT22;9719;49.322;8.536;2024-02-21T09:56:51;10.70;99.90
19174;DHT22;9719;49.322;8.536;2024-02-21T10:01:54;10.90;99.90
19174;DHT22;9719;49.322;8.536;2024-02-21T10:06:56;11.10;99.90
19174;DHT22;9719;49.322;8.536;2024-02-21T10:12:07;11.00;99.90
19174;DHT22;9719;49.322;8.536;2024-02-21T10:17:15;11.10;99.90
19174;DHT22;9719;49.322;8.536;2024-02-21T10:22:18;11.20;99.90
19174;DHT22;9719;49.322;8.536;2024-02-21T10:27:23;11.20;99.90
19174;DHT22;9719;49.322;8.536;2024-02-21T10:32:26;11.40;99.90
19174;DHT22;9719;49.322;8.536;2024-02-21T10:37:28;11.40;99.90
19174;DHT22;9719;49.322;8.536;2024-02-21T10:42:31;11.30;99.90
19174;DHT22;9719;49.322;8.536;2024-02-21T10:47:38;11.60;99.90
19174;DHT22;9719;49.322;8.536;2024-02-21T10:52:48;11.70;99.90
19174;DHT22;9719;49.322;8.536;2024-02-21T10:57:53;11.80;99.90
19174;DHT22;9719;49.322;8.536;2024-02-21T11:07:59;11.70;99.90
19174;DHT22;9719;49.322;8.536;2024-02-21T11:13:07;11.70;99.90
19174;DHT22;9719;49.322;8.536;2024-02-21T11:18:09;12.00;99.90
19174;DHT22;9719;49.322;8.536;2024-02-21T11:23:12;12.10;99.90
19174;DHT22;9719;49.322;8.536;2024-02-21T11:28:13;12.10;99.90
19174;DHT22;9719;49.322;8.536;2024-02-21T11:33:16;12.10;99.90
19174;DHT22;9719;49.322;8.536;2024-02-21T11:38:22;12.20;99.90
19174;DHT22;9719;49.322;8.536;2024-02-21T11:43:25;12.50;99.90
19174;DHT22;9719;49.322;8.536;2024-02-21T11:48:27;12.40;99.90
19174;DHT22;9719;49.322;8.536;2024-02-21T11:53:30;12.60;99.90
19174;DHT22;9719;49.322;8.536;2024-02-21T11:58:34;12.30;99.90
19174;DHT22;9719;49.322;8.536;2024-02-21T12:03:36;12.40;99.90
19174;DHT22;9719;49.322;8.536;2024-02-21T12:08:42;12.30;99.90
19174;DHT22;9719;49.322;8.536;2024-02-21T12:13:44;12.50;99.90
19174;DHT22;9719;49.322;8.536;2024-02-21T12:18:46;12.30;99.90
19174;DHT22;9719;49.322;8.536;2024-02-21T12:23:49;12.20;99.90
19174;DHT22;9719;49.322;8.536;2024-02-21T12:28:51;12.40;99.90
19174;DHT22;9719;49.322;8.536;2024-02-21T12:33:52;12.40;99.90
19174;DHT22;9719;49.322;8.536;2024-02-21T12:38:55;12.50;99.90
19174;DHT22;9719;49.322;8.536;2024-02-21T12:43:57;12.70;99.90
19174;DHT22;9719;49.322;8.536;2024-02-21T12:48:59;12.60;99.90
19174;DHT22;9719;49.322;8.536;2024-02-21T12:54:02;12.90;99.90
19174;DHT22;9719;49.322;8.536;2024-02-21T12:59:04;12.70;99.90
19174;DHT22;9719;49.322;8.536;2024-02-21T13:04:05;12.70;99.90
19174;DHT22;9719;49.322;8.536;2024-02-21T13:09:09;12.70;99.90
19174;DHT22;9719;49.322;8.536;2024-02-21T13:14:12;12.80;99.90
19174;DHT22;9719;49.322;8.536;2024-02-21T13:19:15;12.90;99.90
19174;DHT22;9719;49.322;8.536;2024-02-21T13:24:19;12.60;99.90
19174;DHT22;9719;49.322;8.536;2024-02-21T13:29:20;12.50;99.90
19174;DHT22;9719;49.322;8.536;2024-02-21T13:34:22;12.60;99.90
19174;DHT22;9719;49.322;8.536;2024-02-21T13:39:25;12.60;99.90
19174;DHT22;9719;49.322;8.536;2024-02-21T13:44:27;12.70;99.90
19174;DHT22;9719;49.322;8.536;2024-02-21T13:49:28;12.50;99.90
19174;DHT22;9719;49.322;8.536;2024-02-21T13:54:32;12.40;99.90
19174;DHT22;9719;49.322;8.536;2024-02-21T13:59:34;12.60;99.90
19174;DHT22;9719;49.322;8.536;2024-02-21T14:04:35;12.50;99.90
19174;DHT22;9719;49.322;8.536;2024-02-21T14:09:38;12.60;99.90
19174;DHT22;9719;49.322;8.536;2024-02-21T14:14:40;12.80;99.90
19174;DHT22;9719;49.322;8.536;2024-02-21T14:19:43;12.60;99.90
19174;DHT22;9719;49.322;8.536;2024-02-21T14:24:46;12.60;99.90
19174;DHT22;9719;49.322;8.536;2024-02-21T14:29:48;12.50;99.90
19174;DHT22;9719;49.322;8.536;2024-02-21T14:34:49;12.40;99.90
19174;DHT22;9719;49.322;8.536;2024-02-21T14:39:52;12.30;99.90
19174;DHT22;9719;49.322;8.536;2024-02-21T14:44:54;12.40;99.90
19174;DHT22;9719;49.322;8.536;2024-02-21T14:50:04;12.40;99.90
19174;DHT22;9719;49.322;8.536;2024-02-21T14:55:09;12.30;99.90
19174;DHT22;9719;49.322;8.536;2024-02-21T15:00:13;12.40;99.90
19174;DHT22;9719;49.322;8.536;2024-02-21T15:05:15;12.30;99.90
19174;DHT22;9719;49.322;8.536;2024-02-21T15:10:18;12.20;99.90
19174;DHT22;9719;49.322;8.536;2024-02-21T15:15:20;12.20;99.90
19174;DHT22;9719;49.322;8.536;2024-02-21T15:20:22;12.10;99.90
19174;DHT22;9719;49.322;8.536;2024-02-21T15:25:25;12.00;99.90
19174;DHT22;9719;49.322;8.536;2024-02-21T15:30:26;12.00;99.90
19174;DHT22;9719;49.322;8.536;2024-02-21T15:35:32;11.90;99.90
19174;DHT22;9719;49.322;8.536;2024-02-21T15:40:35;11.70;99.90
19174;DHT22;9719;49.322;8.536;2024-02-21T15:45:37;11.70;99.90
19174;DHT22;9719;49.322;8.536;2024-02-21T15:50:40;11.60;99.90
19174;DHT22;9719;49.322;8.536;2024-02-21T15:55:43;11.50;99.90
19174;DHT22;9719;49.322;8.536;2024-02-21T16:00:46;11.50;99.90
19174;DHT22;9719;49.322;8.536;2024-02-21T16:05:48;11.40;99.90
19174;DHT22;9719;49.322;8.536;2024-02-21T16:10:51;11.40;99.90
19174;DHT22;9719;49.322;8.536;2024-02-21T16:15:53;11.30;99.90
19174;DHT22;9719;49.322;8.536;2024-02-21T16:20:54;11.20;99.90
19174;DHT22;9719;49.322;8.536;2024-02-21T16:25:58;11.10;99.90
19174;DHT22;9719;49.322;8.536;2024-02-21T16:31:01;11.10;99.90
19174;DHT22;9719;49.322;8.536;2024-02-21T16:36:03;11.00;99.90
19174;DHT22;9719;49.322;8.536;2024-02-21T16:41:08;10.90;99.90
19174;DHT22;9719;49.322;8.536;2024-02-21T16:46:11;11.00;99.90
19174;DHT22;9719;49.322;8.536;2024-02-21T16:51:12;10.80;99.90
19174;DHT22;9719;49.322;8.536;2024-02-21T16:56:15;10.80;99.90
19174;DHT22;9719;49.322;8.536;2024-02-21T17:01:19;10.70;99.90
19174;DHT22;9719;49.322;8.536;2024-02-21T17:06:20;10.60;99.90
19174;DHT22;9719;49.322;8.536;2024-02-21T17:11:23;10.60;99.90
19174;DHT22;9719;49.322;8.536;2024-02-21T17:16:25;10.60;99.90
19174;DHT22;9719;49.322;8.536;2024-02-21T17:21:27;10.60;99.90
19174;DHT22;9719;49.322;8.536;2024-02-21T17:26:30;10.50;99.90
19174;DHT22;9719;49.322;8.536;2024-02-21T17:31:32;10.50;99.90
19174;DHT22;9719;49.322;8.536;2024-02-21T17:36:34;10.40;99.90
19174;DHT22;9719;49.322;8.536;2024-02-21T17:41:37;10.40;99.90
19174;DHT22;9719;49.322;8.536;2024-02-21T17:46:40;10.30;99.90
19174;DHT22;9719;49.322;8.536;2024-02-21T17:51:42;10.30;99.90
19174;DHT22;9719;49.322;8.536;2024-02-21T17:56:45;10.40;99.90
19174;DHT22;9719;49.322;8.536;2024-02-21T18:01:47;10.50;99.90
19174;DHT22;9719;49.322;8.536;2024-02-21T18:06:49;10.30;99.90
19174;DHT22;9719;49.322;8.536;2024-02-21T18:11:52;10.30;99.90
19174;DHT22;9719;49.322;8.536;2024-02-21T18:16:54;10.20;99.90
19174;DHT22;9719;49.322;8.536;2024-02-21T18:21:56;10.20;99.90
19174;DHT22;9719;49.322;8.536;2024-02-21T18:26:59;10.20;99.90
19174;DHT22;9719;49.322;8.536;2024-02-21T18:32:01;10.20;99.90
19174;DHT22;9719;49.322;8.536;2024-02-21T18:37:03;10.10;99.90
19174;DHT22;9719;49.322;8.536;2024-02-21T18:42:06;10.20;99.90
19174;DHT22;9719;49.322;8.536;2024-02-21T18:47:08;10.10;99.90
19174;DHT22;9719;49.322;8.536;2024-02-21T18:52:10;10.10;99.90
19174;DHT22;9719;49.322;8.536;2024-02-21T18:57:13;10.10;99.90
19174;DHT22;9719;49.322;8.536;2024-02-21T19:02:16;10.00;99.90
19174;DHT22;9719;49.322;8.536;2024-02-21T19:07:18;10.00;99.90
19174;DHT22;9719;49.322;8.536;2024-02-21T19:12:21;10.00;99.90
19174;DHT22;9719;49.322;8.536;2024-02-21T19:17:24;10.00;99.90
19174;DHT22;9719;49.322;8.536;2024-02-21T19:22:26;10.00;99.90
19174;DHT22;9719;49.322;8.536;2024-02-21T19:27:31;10.00;99.90
19174;DHT22;9719;49.322;8.536;2024-02-21T19:32:33;10.00;99.90
19174;DHT22;9719;49.322;8.536;2024-02-21T19:37:34;9.90;99.90
19174;DHT22;9719;49.322;8.536;2024-02-21T19:42:38;10.00;99.90
19174;DHT22;9719;49.322;8.536;2024-02-21T19:47:41;10.00;99.90
19174;DHT22;9719;49.322;8.536;2024-02-21T19:52:44;10.00;99.90
19174;DHT22;9719;49.322;8.536;2024-02-21T19:57:46;9.90;99.90
19174;DHT22;9719;49.322;8.536;2024-02-21T20:02:48;9.90;99.90
19174;DHT22;9719;49.322;8.536;2024-02-21T20:07:51;9.90;99.90
19174;DHT22;9719;49.322;8.536;2024-02-21T20:12:54;9.90;99.90
19174;DHT22;9719;49.322;8.536;2024-02-21T20:17:56;9.90;99.90
19174;DHT22;9719;49.322;8.536;2024-02-21T20:22:59;10.00;99.90
19174;DHT22;9719;49.322;8.536;2024-02-21T20:28:03;9.90;99.90
19174;DHT22;9719;49.322;8.536;2024-02-21T20:33:05;9.90;99.90
19174;DHT22;9719;49.322;8.536;2024-02-21T20:38:07;10.00;99.90
19174;DHT22;9719;49.322;8.536;2024-02-21T20:43:10;10.00;99.90
19174;DHT22;9719;49.322;8.536;2024-02-21T20:48:11;10.10;99.90
19174;DHT22;9719;49.322;8.536;2024-02-21T20:53:13;10.10;99.90
19174;DHT22;9719;49.322;8.536;2024-02-21T20:58:16;10.20;99.90
19174;DHT22;9719;49.322;8.536;2024-02-21T21:03:18;10.10;99.90
19174;DHT22;9719;49.322;8.536;2024-02-21T21:08:19;10.10;99.90
19174;DHT22;9719;49.322;8.536;2024-02-21T21:13:22;10.10;99.90
19174;DHT22;9719;49.322;8.536;2024-02-21T21:18:24;10.10;99.90
19174;DHT22;9719;49.322;8.536;2024-02-21T21:23:26;10.10;99.90
19174;DHT22;9719;49.322;8.536;2024-02-21T21:28:29;10.20;99.90
19174;DHT22;9719;49.322;8.536;2024-02-21T21:33:31;10.30;99.90
19174;DHT22;9719;49.322;8.536;2024-02-21T21:38:34;10.50;99.90
19174;DHT22;9719;49.322;8.536;2024-02-21T21:43:37;10.60;99.90
19174;DHT22;9719;49.322;8.536;2024-02-21T21:48:42;10.50;99.90
19174;DHT22;9719;49.322;8.536;2024-02-21T21:53:44;10.40;99.90
19174;DHT22;9719;49.322;8.536;2024-02-21T21:58:48;10.50;99.90
19174;DHT22;9719;49.322;8.536;2024-02-21T22:03:49;10.30;99.90
19174;DHT22;9719;49.322;8.536;2024-02-21T22:08:51;10.20;99.90
19174;DHT22;9719;49.322;8.536;2024-02-21T22:13:54;10.40;99.90
19174;DHT22;9719;49.322;8.536;2024-02-21T22:18:56;10.40;99.90
19174;DHT22;9719;49.322;8.536;2024-02-21T22:23:57;10.70;99.90
19174;DHT22;9719;49.322;8.536;2024-02-21T22:29:00;10.60;99.90
19174;DHT22;9719;49.322;8.536;2024-02-21T22:34:02;10.60;99.90
19174;DHT22;9719;49.322;8.536;2024-02-21T22:39:04;10.50;99.90
19174;DHT22;9719;49.322;8.536;2024-02-21T22:44:07;10.40;99.90
19174;DHT22;9719;49.322;8.536;2024-02-21T22:49:09;10.50;99.90
19174;DHT22;9719;49.322;8.536;2024-02-21T22:54:11;10.50;99.90
19174;DHT22;9719;49.322;8.536;2024-02-21T22:59:17;10.30;99.90
19174;DHT22;9719;49.322;8.536;2024-02-21T23:04:19;10.20;99.90
19174;DHT22;9719;49.322;8.536;2024-02-21T23:09:20;10.10;99.90
19174;DHT22;9719;49.322;8.536;2024-02-21T23:14:23;10.00;99.90
19174;DHT22;9719;49.322;8.536;2024-02-21T23:19:25;10.00;99.90
19174;DHT22;9719;49.322;8.536;2024-02-21T23:24:26;9.90;99.90
19174;DHT22;9719;49.322;8.536;2024-02-21T23:29:30;9.90;99.90
19174;DHT22;9719;49.322;8.536;2024-02-21T23:34:31;10.00;99.90
19174;DHT22;9719;49.322;8.536;2024-02-21T23:39:34;9.80;99.90
19174;DHT22;9719;49.322;8.536;2024-02-21T23:44:37;9.70;99.90
19174;DHT22;9719;49.322;8.536;2024-02-21T23:49:40;9.60;99.90
19174;DHT22;9719;49.322;8.536;2024-02-21T23:54:42;9.50;99.90
19174;DHT22;9719;49.322;8.536;2024-02-21T23:59:45;9.40;99.90
